createdAt,value
2018-08-24T00:02:17.380Z,27.80
2018-08-24T00:04:50.890Z,27.80
2018-08-24T00:07:23.961Z,27.80
2018-08-24T00:09:57.265Z,27.80
2018-08-24T00:12:30.129Z,27.80
2018-08-24T00:15:03.012Z,27.80
2018-08-24T00:17:35.632Z,27.80
2018-08-24T00:20:08.264Z,27.80
2018-08-24T00:22:41.058Z,27.80
2018-08-24T00:25:13.999Z,27.80
2018-08-24T00:27:46.717Z,27.80
2018-08-24T00:30:23.753Z,27.70
2018-08-24T00:32:57.045Z,27.70
2018-08-24T00:35:29.988Z,27.70
2018-08-24T00:38:02.985Z,27.70
2018-08-24T00:40:35.841Z,27.70
2018-08-24T00:43:08.722Z,27.70
2018-08-24T00:45:41.516Z,27.70
2018-08-24T00:48:14.374Z,27.70
2018-08-24T00:50:47.160Z,27.70
2018-08-24T00:53:20.154Z,27.70
2018-08-24T00:55:52.981Z,27.70
2018-08-24T00:58:26.044Z,27.70
2018-08-24T01:01:03.581Z,27.70
2018-08-24T01:03:36.289Z,27.60
2018-08-24T01:06:09.462Z,27.60
2018-08-24T01:08:45.657Z,27.60
2018-08-24T01:11:18.438Z,27.60
2018-08-24T01:13:52.721Z,27.60
2018-08-24T01:16:30.245Z,27.60
2018-08-24T01:19:02.947Z,27.60
2018-08-24T01:21:35.865Z,27.50
2018-08-24T01:24:08.776Z,27.50
2018-08-24T01:26:41.621Z,27.50
2018-08-24T01:29:14.495Z,27.50
2018-08-24T01:31:47.621Z,27.50
2018-08-24T01:34:20.324Z,27.50
2018-08-24T01:36:52.239Z,27.50
2018-08-24T01:39:25.327Z,27.50
2018-08-24T01:41:57.908Z,27.50
2018-08-24T01:44:31.240Z,27.50
2018-08-24T01:47:04.468Z,27.50
2018-08-24T01:49:37.244Z,27.50
2018-08-24T01:52:10.335Z,27.50
2018-08-24T01:54:43.015Z,27.50
2018-08-24T01:57:16.212Z,27.40
2018-08-24T01:59:49.327Z,27.40
2018-08-24T02:02:21.315Z,27.40
2018-08-24T02:04:54.820Z,27.40
2018-08-24T02:12:38.445Z,27.50
2018-08-24T02:15:11.381Z,27.40
2018-08-24T02:17:49.243Z,27.40
2018-08-24T02:20:31.239Z,27.40
2018-08-24T02:23:09.880Z,27.40
2018-08-24T02:25:43.343Z,27.30
2018-08-24T02:28:16.549Z,27.30
2018-08-24T02:30:49.639Z,27.30
2018-08-24T02:33:22.387Z,27.30
2018-08-24T02:35:56.896Z,27.30
2018-08-24T02:38:30.239Z,27.30
2018-08-24T02:41:03.391Z,27.30
2018-08-24T02:43:36.224Z,27.30
2018-08-24T02:46:09.232Z,27.30
2018-08-24T02:48:42.196Z,27.30
2018-08-24T02:51:15.233Z,27.30
2018-08-24T02:53:47.957Z,27.30
2018-08-24T02:56:21.703Z,27.30
2018-08-24T02:58:55.444Z,27.30
2018-08-24T03:01:28.416Z,27.30
2018-08-24T03:04:01.467Z,27.30
2018-08-24T03:06:33.996Z,27.30
2018-08-24T03:09:10.678Z,27.30
2018-08-24T03:11:43.510Z,27.30
2018-08-24T03:14:16.461Z,27.30
2018-08-24T03:16:54.870Z,27.30
2018-08-24T03:19:28.058Z,27.30
2018-08-24T03:22:01.239Z,27.20
2018-08-24T03:24:34.476Z,27.20
2018-08-24T03:27:07.354Z,27.20
2018-08-24T03:29:40.322Z,27.20
2018-08-24T03:32:12.082Z,27.20
2018-08-24T03:34:45.370Z,27.20
2018-08-24T03:37:18.420Z,27.20
2018-08-24T03:39:51.540Z,27.20
2018-08-24T03:42:24.330Z,27.20
2018-08-24T03:44:57.539Z,27.20
2018-08-24T03:47:29.929Z,27.20
2018-08-24T03:50:02.640Z,27.20
2018-08-24T03:52:35.434Z,27.20
2018-08-24T03:55:08.553Z,27.20
2018-08-24T03:57:41.406Z,27.20
2018-08-24T04:00:19.752Z,27.20
2018-08-24T04:02:53.661Z,27.20
2018-08-24T04:05:27.702Z,27.20
2018-08-24T04:08:01.228Z,27.20
2018-08-24T04:10:37.522Z,27.20
2018-08-24T04:13:11.824Z,27.20
2018-08-24T04:15:45.236Z,27.10
2018-08-24T04:18:18.692Z,27.20
2018-08-24T04:20:52.227Z,27.10
2018-08-24T04:23:25.340Z,27.10
2018-08-24T04:25:59.424Z,27.10
2018-08-24T04:28:33.031Z,27.10
2018-08-24T04:31:06.241Z,27.10
2018-08-24T04:33:38.889Z,27.10
2018-08-24T04:36:11.835Z,27.10
2018-08-24T04:38:44.526Z,27.10
2018-08-24T04:41:19.483Z,27.10
2018-08-24T04:43:52.448Z,27.10
2018-08-24T04:46:25.257Z,27.10
2018-08-24T04:48:58.524Z,27.10
2018-08-24T04:51:31.642Z,27.10
2018-08-24T04:54:06.591Z,27.10
2018-08-24T04:56:39.287Z,27.10
2018-08-24T04:59:12.033Z,27.10
2018-08-24T05:01:45.001Z,27.10
2018-08-24T05:04:17.968Z,27.10
2018-08-24T05:06:50.854Z,27.10
2018-08-24T05:09:23.439Z,27.10
2018-08-24T05:11:56.832Z,27.10
2018-08-24T05:14:29.579Z,27.10
2018-08-24T05:17:02.399Z,27.10
2018-08-24T05:19:34.956Z,27.10
2018-08-24T05:22:07.941Z,27.10
2018-08-24T05:24:40.673Z,27.10
2018-08-24T05:27:13.332Z,27.10
2018-08-24T05:29:46.214Z,27.10
2018-08-24T05:32:19.320Z,27.10
2018-08-24T05:34:52.332Z,27.10
2018-08-24T05:37:25.465Z,27.10
2018-08-24T05:39:58.576Z,27.10
2018-08-24T05:42:31.483Z,27.10
2018-08-24T05:45:04.374Z,27.20
2018-08-24T05:50:54.178Z,27.20
2018-08-24T05:53:27.044Z,27.10
2018-08-24T05:56:00.480Z,27.00
2018-08-24T05:58:33.034Z,26.90
2018-08-24T06:01:05.931Z,26.90
2018-08-24T06:03:38.582Z,26.80
2018-08-24T06:06:11.299Z,26.80
2018-08-24T06:08:44.879Z,26.80
2018-08-24T06:11:17.573Z,26.80
2018-08-24T06:13:50.445Z,26.80
2018-08-24T06:16:23.334Z,26.80
2018-08-24T06:18:56.677Z,26.80
2018-08-24T06:21:29.634Z,26.80
2018-08-24T06:24:02.266Z,26.80
2018-08-24T06:26:35.250Z,26.80
2018-08-24T06:29:13.617Z,26.80
2018-08-24T06:31:46.496Z,26.80
2018-08-24T06:34:19.483Z,26.80
2018-08-24T06:36:52.422Z,26.80
2018-08-24T06:39:25.224Z,26.80
2018-08-24T06:41:58.609Z,26.80
2018-08-24T06:44:31.069Z,26.80
2018-08-24T06:47:03.889Z,26.80
2018-08-24T06:49:36.889Z,26.80
2018-08-24T06:52:09.862Z,26.80
2018-08-24T06:54:44.569Z,26.80
2018-08-24T06:57:17.562Z,26.80
2018-08-24T06:59:50.759Z,26.80
2018-08-24T07:02:24.849Z,26.70
2018-08-24T07:04:59.427Z,26.60
2018-08-24T07:07:36.429Z,26.60
2018-08-24T07:10:09.408Z,26.60
2018-08-24T07:12:42.376Z,26.70
2018-08-24T07:15:18.224Z,26.70
